createdAt,value
2019-01-08T00:00:40.483Z,1006.53
2019-01-08T00:01:40.491Z,1006.45
2019-01-08T00:02:40.456Z,1006.42
2019-01-08T00:03:40.456Z,1006.39
2019-01-08T00:04:40.435Z,1006.32
2019-01-08T00:05:40.415Z,1006.34
2019-01-08T00:06:40.432Z,1006.21
2019-01-08T00:07:40.399Z,1006.27
2019-01-08T00:08:40.402Z,1006.21
2019-01-08T00:09:40.370Z,1006.22
2019-01-08T00:10:40.359Z,1006.32
2019-01-08T00:11:40.376Z,1006.32
2019-01-08T00:12:40.348Z,1006.35
2019-01-08T00:13:40.336Z,1006.33
2019-01-08T00:14:40.333Z,1006.16
2019-01-08T00:15:40.308Z,1006.23
2019-01-08T00:16:40.316Z,1006.21
2019-01-08T00:17:40.284Z,1006.17
2019-01-08T00:18:40.283Z,1006.18
2019-01-08T00:19:40.270Z,1006.00
2019-01-08T00:20:40.306Z,1005.96
2019-01-08T00:21:40.264Z,1005.95
2019-01-08T00:22:40.222Z,1006.01
2019-01-08T00:23:40.222Z,1005.83
2019-01-08T00:24:40.203Z,1005.79
2019-01-08T00:25:40.203Z,1005.79
2019-01-08T00:26:40.206Z,1005.98
2019-01-08T00:27:40.171Z,1005.76
2019-01-08T00:28:43.343Z,1005.77
2019-01-08T00:29:40.157Z,1005.85
2019-01-08T00:30:40.133Z,1005.61
2019-01-08T00:31:40.155Z,1005.66
2019-01-08T00:32:40.129Z,1005.75
2019-01-08T00:33:40.107Z,1005.67
2019-01-08T00:34:40.090Z,1005.58
2019-01-08T00:35:40.076Z,1005.57
2019-01-08T00:36:40.075Z,1005.61
2019-01-08T00:37:40.078Z,1005.57
2019-01-08T00:38:40.045Z,1005.52
2019-01-08T00:39:40.035Z,1005.49
2019-01-08T00:40:40.027Z,1005.38
2019-01-08T00:41:40.031Z,1005.31
2019-01-08T00:42:40.019Z,1005.42
2019-01-08T00:43:40.004Z,1005.53
2019-01-08T00:44:39.976Z,1005.40
2019-01-08T00:45:39.970Z,1005.29
2019-01-08T00:46:39.963Z,1005.30
2019-01-08T00:47:39.969Z,1005.28
2019-01-08T00:48:39.936Z,1005.27
2019-01-08T00:49:39.936Z,1005.35
2019-01-08T00:50:39.911Z,1005.38
2019-01-08T00:51:39.903Z,1005.25
2019-01-08T00:52:39.901Z,1005.22
2019-01-08T00:53:39.876Z,1005.17
2019-01-08T00:54:39.880Z,1005.14
2019-01-08T00:55:39.858Z,1005.09
2019-01-08T00:56:39.841Z,1005.12
2019-01-08T00:57:39.859Z,1005.01
2019-01-08T00:58:39.818Z,1005.16
2019-01-08T00:59:39.802Z,1005.23
2019-01-08T01:00:39.789Z,1005.02
2019-01-08T01:01:39.792Z,1005.01
2019-01-08T01:02:39.801Z,1004.98
2019-01-08T01:03:39.766Z,1004.97
2019-01-08T01:04:39.752Z,1004.92
2019-01-08T01:05:39.832Z,1004.95
2019-01-08T01:06:39.751Z,1004.86
2019-01-08T01:07:39.736Z,1004.82
2019-01-08T01:08:39.716Z,1004.83
2019-01-08T01:09:39.705Z,1004.84
2019-01-08T01:10:39.691Z,1004.77
2019-01-08T01:11:39.676Z,1004.74
2019-01-08T01:12:39.691Z,1004.73
2019-01-08T01:13:39.646Z,1004.71
2019-01-08T01:14:39.643Z,1004.70
2019-01-08T01:15:39.630Z,1004.61
2019-01-08T01:16:39.620Z,1004.70
2019-01-08T01:17:39.611Z,1004.46
2019-01-08T01:18:39.625Z,1004.46
2019-01-08T01:19:39.587Z,1004.57
2019-01-08T01:20:39.567Z,1004.56
2019-01-08T01:21:39.564Z,1004.72
2019-01-08T01:22:39.548Z,1004.50
2019-01-08T01:23:39.558Z,1004.58
2019-01-08T01:24:39.537Z,1004.28
2019-01-08T01:25:39.522Z,1004.31
2019-01-08T01:26:39.517Z,1004.36
2019-01-08T01:27:39.502Z,1004.31
2019-01-08T01:28:39.505Z,1004.31
2019-01-08T01:29:39.468Z,1004.27
2019-01-08T01:30:39.453Z,1004.26
2019-01-08T01:31:39.449Z,1004.08
2019-01-08T01:32:39.436Z,1004.21
2019-01-08T01:33:39.439Z,1004.14
2019-01-08T01:34:39.418Z,1004.11
2019-01-08T01:35:39.414Z,1004.09
2019-01-08T01:36:39.387Z,1004.17
2019-01-08T01:37:39.384Z,1004.01
2019-01-08T01:38:39.421Z,1003.93
2019-01-08T01:39:39.375Z,1004.06
2019-01-08T01:40:39.350Z,1004.11
2019-01-08T01:41:39.344Z,1003.99
2019-01-08T01:42:39.323Z,1004.07
2019-01-08T01:43:39.332Z,1003.82
2019-01-08T01:44:39.310Z,1003.76
2019-01-08T01:45:39.310Z,1003.92
2019-01-08T01:46:39.299Z,1003.84
2019-01-08T01:47:39.283Z,1003.74
2019-01-08T01:48:39.279Z,1003.66
2019-01-08T01:49:39.243Z,1003.62
2019-01-08T01:50:39.240Z,1003.63
2019-01-08T01:51:39.223Z,1003.73
2019-01-08T01:52:39.211Z,1003.62
2019-01-08T01:53:39.244Z,1003.58
2019-01-08T01:54:39.223Z,1003.62
2019-01-08T01:55:39.185Z,1003.54
2019-01-08T01:56:39.169Z,1003.52
2019-01-08T01:57:39.169Z,1003.61
2019-01-08T01:58:39.181Z,1003.49
2019-01-08T01:59:39.142Z,1003.47
2019-01-08T02:00:39.121Z,1003.48
2019-01-08T02:01:39.113Z,1003.53
2019-01-08T02:02:39.106Z,1003.51
2019-01-08T02:03:39.101Z,1003.36
2019-01-08T02:04:39.095Z,1003.44
2019-01-08T02:05:39.061Z,1003.37
2019-01-08T02:06:39.054Z,1003.43
2019-01-08T02:07:39.045Z,1003.35
2019-01-08T02:08:39.040Z,1003.36
2019-01-08T02:09:39.040Z,1003.36
2019-01-08T02:10:39.013Z,1003.20
2019-01-08T02:11:38.996Z,1003.32
2019-01-08T02:12:38.978Z,1003.19
2019-01-08T02:13:38.989Z,1003.16
2019-01-08T02:14:38.984Z,1003.30
2019-01-08T02:15:38.988Z,1003.18
2019-01-08T02:16:38.958Z,1003.20
2019-01-08T02:17:38.932Z,1003.19
2019-01-08T02:18:38.913Z,1003.21
2019-01-08T02:19:38.922Z,1003.14
2019-01-08T02:20:38.892Z,1003.00
2019-01-08T02:21:38.878Z,1003.05
2019-01-08T02:22:38.883Z,1002.99
2019-01-08T02:23:38.867Z,1002.98
2019-01-08T02:24:38.862Z,1002.98
2019-01-08T02:25:38.860Z,1003.16
2019-01-08T02:26:38.835Z,1003.18
2019-01-08T02:27:38.814Z,1003.18
2019-01-08T02:28:38.810Z,1003.03
2019-01-08T02:29:38.810Z,1003.11
2019-01-08T02:30:38.782Z,1002.89
2019-01-08T02:31:38.770Z,1002.96
2019-01-08T02:32:38.766Z,1002.85
2019-01-08T02:33:38.750Z,1002.85
2019-01-08T02:34:38.751Z,1002.93
2019-01-08T02:35:38.732Z,1002.88
2019-01-08T02:36:38.707Z,1002.95
2019-01-08T02:37:38.716Z,1002.85
2019-01-08T02:38:38.690Z,1002.85
2019-01-08T02:39:38.713Z,1002.89
2019-01-08T02:40:38.661Z,1003.07
2019-01-08T02:41:38.659Z,1002.90
2019-01-08T02:42:38.644Z,1002.86
2019-01-08T02:43:38.638Z,1002.84
2019-01-08T02:44:38.687Z,1002.77
2019-01-08T02:45:38.622Z,1002.75
2019-01-08T02:46:38.685Z,1002.71
2019-01-08T02:47:38.608Z,1002.69
2019-01-08T02:48:38.588Z,1002.61
2019-01-08T02:49:38.568Z,1002.63
2019-01-08T02:50:38.582Z,1002.50
2019-01-08T02:51:38.540Z,1002.65
2019-01-08T02:52:38.541Z,1002.55
2019-01-08T02:53:38.527Z,1002.55
2019-01-08T02:54:38.610Z,1002.46
2019-01-08T02:55:38.516Z,1002.41
2019-01-08T02:56:38.492Z,1002.64
2019-01-08T02:57:38.480Z,1002.61
2019-01-08T02:58:38.460Z,1002.49
2019-01-08T02:59:38.457Z,1002.40
2019-01-08T03:00:38.462Z,1002.40
2019-01-08T03:01:38.437Z,1002.42
2019-01-08T03:02:38.429Z,1002.42
2019-01-08T03:03:38.420Z,1002.44
2019-01-08T03:04:38.401Z,1002.28
2019-01-08T03:05:38.407Z,1002.23
2019-01-08T03:06:38.379Z,1002.25
2019-01-08T03:07:38.379Z,1002.18
2019-01-08T03:08:38.355Z,1002.00
2019-01-08T03:09:38.339Z,1002.00
2019-01-08T03:10:38.350Z,1002.02
2019-01-08T03:11:38.317Z,1001.99
2019-01-08T03:12:38.315Z,1002.00
2019-01-08T03:13:38.312Z,1002.04
2019-01-08T03:14:38.290Z,1001.99
2019-01-08T03:15:38.301Z,1002.07
2019-01-08T03:16:38.268Z,1001.98
2019-01-08T03:17:38.297Z,1002.06
2019-01-08T03:18:38.249Z,1001.92
2019-01-08T03:19:38.240Z,1001.81
2019-01-08T03:20:38.252Z,1001.75
2019-01-08T03:21:38.213Z,1001.92
2019-01-08T03:22:38.206Z,1001.61
2019-01-08T03:23:38.190Z,1001.73
2019-01-08T03:24:38.181Z,1001.55
2019-01-08T03:25:38.186Z,1001.64
2019-01-08T03:26:38.152Z,1001.76
2019-01-08T03:27:38.196Z,1001.61
2019-01-08T03:28:38.162Z,1001.60
2019-01-08T03:29:38.126Z,1001.51
2019-01-08T03:30:38.149Z,1001.69
2019-01-08T03:31:38.124Z,1001.42
2019-01-08T03:32:38.091Z,1001.62
2019-01-08T03:33:38.079Z,1001.50
2019-01-08T03:34:38.066Z,1001.43
2019-01-08T03:35:38.054Z,1001.46
2019-01-08T03:36:38.068Z,1001.39
2019-01-08T03:37:38.042Z,1001.39
2019-01-08T03:38:38.021Z,1001.59
2019-01-08T03:39:38.021Z,1001.51
2019-01-08T03:40:38.006Z,1001.36
2019-01-08T03:41:38.009Z,1001.31
2019-01-08T03:42:37.977Z,1001.30
2019-01-08T03:43:37.964Z,1001.36
2019-01-08T03:44:37.951Z,1001.33
2019-01-08T03:45:37.938Z,1001.41
2019-01-08T03:46:37.970Z,1001.44
2019-01-08T03:47:37.924Z,1001.19
2019-01-08T03:48:37.905Z,1001.35
2019-01-08T03:49:37.904Z,1001.24
2019-01-08T03:50:37.878Z,1001.24
2019-01-08T03:51:37.968Z,1001.21
2019-01-08T03:52:37.926Z,1001.16
2019-01-08T03:53:37.866Z,1001.20
2019-01-08T03:54:37.827Z,1001.11
2019-01-08T03:55:37.834Z,1001.10
2019-01-08T03:56:37.840Z,1001.05
2019-01-08T03:57:37.844Z,1001.12
2019-01-08T03:58:37.793Z,1001.01
2019-01-08T03:59:41.968Z,1000.93
2019-01-08T04:00:37.761Z,1000.89
2019-01-08T04:01:37.784Z,1000.92
2019-01-08T04:02:37.758Z,1001.00
2019-01-08T04:03:37.743Z,1000.99
2019-01-08T04:04:37.729Z,1000.81
2019-01-08T04:05:37.711Z,1000.74
2019-01-08T04:06:37.707Z,1000.83
2019-01-08T04:07:37.689Z,1000.88
2019-01-08T04:08:37.682Z,1000.78
2019-01-08T04:09:37.671Z,1000.72
2019-01-08T04:10:37.667Z,1000.70
2019-01-08T04:11:37.681Z,1000.63
2019-01-08T04:12:37.641Z,1000.62
2019-01-08T04:13:37.635Z,1000.61
2019-01-08T04:14:37.611Z,1000.64
2019-01-08T04:15:37.609Z,1000.58
2019-01-08T04:16:37.598Z,1000.56
2019-01-08T04:17:37.614Z,1000.52
2019-01-08T04:18:37.563Z,1000.55
2019-01-08T04:19:37.565Z,1000.46
2019-01-08T04:20:37.594Z,1000.48
2019-01-08T04:21:37.533Z,1000.44
2019-01-08T04:22:37.551Z,1000.52
2019-01-08T04:23:37.519Z,1000.51
2019-01-08T04:24:37.507Z,1000.54
2019-01-08T04:25:37.485Z,1000.58
2019-01-08T04:26:37.481Z,1000.57
2019-01-08T04:27:37.491Z,1000.52
2019-01-08T04:28:37.468Z,1000.55
2019-01-08T04:29:37.439Z,1000.52
2019-01-08T04:30:37.427Z,1000.50
2019-01-08T04:31:37.424Z,1000.52
2019-01-08T04:32:37.425Z,1000.35
2019-01-08T04:33:37.405Z,1000.45
2019-01-08T04:34:37.386Z,1000.44
2019-01-08T04:35:37.370Z,1000.39
2019-01-08T04:36:37.368Z,1000.23
2019-01-08T04:37:37.379Z,1000.34
2019-01-08T04:38:37.393Z,1000.33
2019-01-08T04:39:37.355Z,1000.24
2019-01-08T04:40:37.318Z,1000.14
2019-01-08T04:41:37.300Z,1000.14
2019-01-08T04:42:37.316Z,1000.05
2019-01-08T04:43:37.298Z,1000.06
2019-01-08T04:44:37.275Z,1000.05
2019-01-08T04:45:37.274Z,999.95
2019-01-08T04:46:37.246Z,999.86
2019-01-08T04:47:37.261Z,999.83
2019-01-08T04:48:37.258Z,999.82
2019-01-08T04:49:37.234Z,999.82
2019-01-08T04:50:37.218Z,999.73
2019-01-08T04:51:37.212Z,999.75
2019-01-08T04:52:37.302Z,999.72
2019-01-08T04:53:37.177Z,999.74
2019-01-08T04:54:37.176Z,999.63
2019-01-08T04:55:37.240Z,999.58
2019-01-08T04:56:37.154Z,999.57
2019-01-08T04:57:37.132Z,999.49
2019-01-08T04:58:37.146Z,999.40
2019-01-08T04:59:37.108Z,999.44
2019-01-08T05:00:37.108Z,999.39
2019-01-08T05:01:37.089Z,999.38
2019-01-08T05:02:37.081Z,999.39
2019-01-08T05:03:37.086Z,999.26
2019-01-08T05:04:37.046Z,999.35
2019-01-08T05:05:37.038Z,999.25
2019-01-08T05:06:37.042Z,999.18
2019-01-08T05:07:37.019Z,999.13
2019-01-08T05:08:37.027Z,999.20
2019-01-08T05:09:36.995Z,999.14
2019-01-08T05:10:36.986Z,999.13
2019-01-08T05:11:36.974Z,999.18
2019-01-08T05:12:36.970Z,999.00
2019-01-08T05:13:36.971Z,999.04
2019-01-08T05:14:36.940Z,999.05
2019-01-08T05:15:36.924Z,998.89
2019-01-08T05:16:36.914Z,999.04
2019-01-08T05:17:36.899Z,998.88
2019-01-08T05:18:36.971Z,998.99
2019-01-08T05:19:36.881Z,999.02
2019-01-08T05:20:36.877Z,999.02
2019-01-08T05:21:36.850Z,998.94
2019-01-08T05:22:36.843Z,998.90
2019-01-08T05:23:36.845Z,999.13
2019-01-08T05:24:36.830Z,998.99
2019-01-08T05:25:36.823Z,999.10
2019-01-08T05:26:36.793Z,998.97
2019-01-08T05:27:36.799Z,998.83
2019-01-08T05:28:36.805Z,999.05
2019-01-08T05:29:36.773Z,998.90
2019-01-08T05:30:36.751Z,998.85
2019-01-08T05:31:36.745Z,998.77
2019-01-08T05:32:36.726Z,998.83
2019-01-08T05:33:36.731Z,998.82
2019-01-08T05:34:36.717Z,998.85
2019-01-08T05:35:36.719Z,998.75
2019-01-08T05:36:36.684Z,998.82
2019-01-08T05:37:36.721Z,998.76
2019-01-08T05:38:36.693Z,998.77
2019-01-08T05:39:36.669Z,998.66
2019-01-08T05:40:36.645Z,998.60
2019-01-08T05:41:36.650Z,998.59
2019-01-08T05:42:36.615Z,998.59
2019-01-08T05:43:36.639Z,998.58
2019-01-08T05:44:36.618Z,998.52
2019-01-08T05:45:36.589Z,998.51
2019-01-08T05:46:36.582Z,998.57
2019-01-08T05:47:36.583Z,998.58
2019-01-08T05:48:36.569Z,998.55
2019-01-08T05:49:36.866Z,998.52
2019-01-08T05:50:36.567Z,998.45
2019-01-08T05:51:36.521Z,998.45
2019-01-08T05:52:36.530Z,998.44
2019-01-08T05:53:36.501Z,998.46
2019-01-08T05:54:36.508Z,998.36
2019-01-08T05:55:36.471Z,998.43
2019-01-08T05:56:36.465Z,998.36
2019-01-08T05:57:36.451Z,998.42
2019-01-08T05:58:36.441Z,998.37
2019-01-08T05:59:36.449Z,998.18
2019-01-08T06:00:36.422Z,998.25
2019-01-08T06:01:36.399Z,998.25
2019-01-08T06:02:36.400Z,998.18
2019-01-08T06:03:36.383Z,998.26
2019-01-08T06:04:36.398Z,998.35
2019-01-08T06:05:36.360Z,998.14
2019-01-08T06:06:36.369Z,998.25
2019-01-08T06:07:36.336Z,998.25
2019-01-08T06:08:36.332Z,998.22
2019-01-08T06:09:36.351Z,998.22
2019-01-08T06:10:36.309Z,998.06
2019-01-08T06:11:36.300Z,998.15
2019-01-08T06:12:36.277Z,998.12
2019-01-08T06:13:36.269Z,998.01
2019-01-08T06:14:36.930Z,997.93
2019-01-08T06:15:36.259Z,997.97
2019-01-08T06:16:36.235Z,998.02
2019-01-08T06:17:36.238Z,998.01
2019-01-08T06:18:36.209Z,998.03
2019-01-08T06:19:36.232Z,997.98
2019-01-08T06:20:36.252Z,997.82
2019-01-08T06:21:36.197Z,997.90
2019-01-08T06:22:36.180Z,997.84
2019-01-08T06:23:36.161Z,997.89
2019-01-08T06:24:36.184Z,997.87
2019-01-08T06:25:36.132Z,997.71
2019-01-08T06:26:36.126Z,997.80
2019-01-08T06:27:36.113Z,997.75
2019-01-08T06:28:36.107Z,997.76
2019-01-08T06:29:36.080Z,997.66
2019-01-08T06:30:36.102Z,997.75
2019-01-08T06:31:36.072Z,997.62
2019-01-08T06:32:36.070Z,997.66
2019-01-08T06:33:36.034Z,997.48
2019-01-08T06:34:36.035Z,997.44
2019-01-08T06:35:36.077Z,997.41
2019-01-08T06:36:36.029Z,997.48
2019-01-08T06:37:36.005Z,997.49
2019-01-08T06:38:35.987Z,997.43
2019-01-08T06:39:35.985Z,997.39
2019-01-08T06:40:35.979Z,997.36
2019-01-08T06:41:35.954Z,997.39
2019-01-08T06:42:35.952Z,997.40
2019-01-08T06:43:35.936Z,997.25
2019-01-08T06:44:35.926Z,997.25
2019-01-08T06:45:35.923Z,997.23
2019-01-08T06:46:42.948Z,997.33
2019-01-08T06:47:36.890Z,997.26
2019-01-08T06:48:35.874Z,997.28
2019-01-08T06:49:35.861Z,997.24
2019-01-08T06:50:35.868Z,997.21
2019-01-08T06:51:35.854Z,997.20
2019-01-08T06:52:35.827Z,997.15
2019-01-08T06:53:35.807Z,997.13
2019-01-08T06:54:35.814Z,997.23
2019-01-08T06:55:35.817Z,997.32
2019-01-08T06:56:35.799Z,997.09
2019-01-08T06:57:37.064Z,996.99
2019-01-08T06:58:35.780Z,996.99
2019-01-08T06:59:35.749Z,997.07
2019-01-08T07:00:35.762Z,997.01
2019-01-08T07:01:35.725Z,997.15
2019-01-08T07:02:35.733Z,997.04
2019-01-08T07:03:35.716Z,997.05
2019-01-08T07:04:35.689Z,997.13
2019-01-08T07:05:35.722Z,996.94
2019-01-08T07:06:35.673Z,996.95
2019-01-08T07:07:35.672Z,996.91
2019-01-08T07:08:35.689Z,997.03
2019-01-08T07:09:35.643Z,997.06
2019-01-08T07:10:35.631Z,996.90
2019-01-08T07:11:35.640Z,996.86
2019-01-08T07:12:35.690Z,996.93
2019-01-08T07:13:35.601Z,996.76
2019-01-08T07:14:35.581Z,996.81
2019-01-08T07:15:35.579Z,996.79
2019-01-08T07:16:35.590Z,996.82
2019-01-08T07:17:35.547Z,996.70
2019-01-08T07:18:35.544Z,996.76
2019-01-08T07:19:35.525Z,996.76
2019-01-08T07:20:35.523Z,996.69
2019-01-08T07:21:35.553Z,996.60
2019-01-08T07:22:35.488Z,996.59
2019-01-08T07:23:35.493Z,996.41
2019-01-08T07:24:35.471Z,996.30
2019-01-08T07:25:42.074Z,996.31
2019-01-08T07:26:36.479Z,996.28
2019-01-08T07:27:35.458Z,996.15
2019-01-08T07:28:35.433Z,996.35
2019-01-08T07:29:35.421Z,996.22
2019-01-08T07:30:41.518Z,996.17
2019-01-08T07:31:36.421Z,996.23
2019-01-08T07:32:35.395Z,996.20
2019-01-08T07:33:35.382Z,996.29
2019-01-08T07:34:35.357Z,996.43
2019-01-08T07:35:35.374Z,996.28
2019-01-08T07:36:35.359Z,996.32
2019-01-08T07:37:35.327Z,996.25
2019-01-08T07:38:35.332Z,996.31
2019-01-08T07:39:35.310Z,996.22
2019-01-08T07:40:35.336Z,996.22
2019-01-08T07:41:35.290Z,996.18
2019-01-08T07:42:35.276Z,995.97
2019-01-08T07:43:35.255Z,995.90
2019-01-08T07:44:35.248Z,996.11
2019-01-08T07:45:35.233Z,995.92
2019-01-08T07:46:35.256Z,995.90
2019-01-08T07:47:35.206Z,995.94
2019-01-08T07:48:35.208Z,995.90
2019-01-08T07:49:35.183Z,995.90
2019-01-08T07:50:35.164Z,995.67
2019-01-08T07:51:35.178Z,995.76
2019-01-08T07:52:35.176Z,995.68
2019-01-08T07:53:35.156Z,995.70
2019-01-08T07:54:35.964Z,995.58
2019-01-08T07:55:35.122Z,995.70
2019-01-08T07:56:35.118Z,995.58
2019-01-08T07:57:35.119Z,995.55
2019-01-08T07:58:35.083Z,995.84
2019-01-08T07:59:35.078Z,995.58
2019-01-08T08:00:35.115Z,995.68
2019-01-08T08:01:35.052Z,995.64
2019-01-08T08:02:35.070Z,995.48
2019-01-08T08:03:35.035Z,995.73
2019-01-08T08:04:35.024Z,995.51
2019-01-08T08:05:35.004Z,995.45
2019-01-08T08:06:34.998Z,995.45
2019-01-08T08:07:35.009Z,995.38
2019-01-08T08:08:34.978Z,995.46
2019-01-08T08:09:34.980Z,995.42
2019-01-08T08:10:34.942Z,995.39
2019-01-08T08:11:34.943Z,995.37
2019-01-08T08:12:34.951Z,995.37
2019-01-08T08:13:34.935Z,995.30
2019-01-08T08:14:34.914Z,995.23
2019-01-08T08:15:34.901Z,995.31
2019-01-08T08:16:34.887Z,995.34
2019-01-08T08:17:34.892Z,995.36
2019-01-08T08:18:34.874Z,995.34
2019-01-08T08:19:34.899Z,995.31
2019-01-08T08:20:34.912Z,995.12
2019-01-08T08:21:34.827Z,995.39
2019-01-08T08:22:34.839Z,995.32
2019-01-08T08:23:34.810Z,995.32
2019-01-08T08:24:34.802Z,995.24
2019-01-08T08:25:34.787Z,995.18
2019-01-08T08:26:34.776Z,995.23
2019-01-08T08:27:34.807Z,995.35
2019-01-08T08:28:34.753Z,995.16
2019-01-08T08:29:34.749Z,995.17
2019-01-08T08:30:34.734Z,995.27
2019-01-08T08:31:34.823Z,995.32
2019-01-08T08:32:34.738Z,995.22
2019-01-08T08:33:34.683Z,995.03
2019-01-08T08:34:34.686Z,995.05
2019-01-08T08:35:34.665Z,994.94
2019-01-08T08:36:34.662Z,995.10
2019-01-08T08:37:34.645Z,995.11
2019-01-08T08:38:34.774Z,994.94
2019-01-08T08:39:34.681Z,994.98
2019-01-08T08:40:34.641Z,994.92
2019-01-08T08:41:34.601Z,994.85
2019-01-08T08:42:34.597Z,994.88
2019-01-08T08:43:34.599Z,994.81
2019-01-08T08:44:34.574Z,994.83
2019-01-08T08:45:34.558Z,994.77
2019-01-08T08:46:34.559Z,994.81
2019-01-08T08:47:34.539Z,994.65
2019-01-08T08:48:34.543Z,994.61
2019-01-08T08:49:34.509Z,994.80
2019-01-08T08:50:35.375Z,994.54
2019-01-08T08:51:34.489Z,994.45
2019-01-08T08:52:34.486Z,994.58
2019-01-08T08:53:34.478Z,994.58
2019-01-08T08:54:34.495Z,994.51
2019-01-08T08:55:34.460Z,994.50
2019-01-08T08:56:34.435Z,994.47
2019-01-08T08:57:34.428Z,994.49
2019-01-08T08:58:34.430Z,994.62
2019-01-08T08:59:34.408Z,994.46
2019-01-08T09:00:34.383Z,994.49
2019-01-08T09:01:34.378Z,994.40
2019-01-08T09:02:34.362Z,994.32
2019-01-08T09:03:34.370Z,994.27
2019-01-08T09:04:34.345Z,994.32
2019-01-08T09:05:34.340Z,994.29
2019-01-08T09:06:34.311Z,994.29
2019-01-08T09:07:34.333Z,994.16
2019-01-08T09:08:34.332Z,994.26
2019-01-08T09:09:34.302Z,994.07
2019-01-08T09:10:34.282Z,994.06
2019-01-08T09:11:34.273Z,994.05
2019-01-08T09:12:34.252Z,994.16
2019-01-08T09:13:34.265Z,994.18
2019-01-08T09:14:34.236Z,994.14
2019-01-08T09:15:34.220Z,994.17
2019-01-08T09:16:34.220Z,994.08
2019-01-08T09:17:34.199Z,994.16
2019-01-08T09:18:34.204Z,994.06
2019-01-08T09:19:34.180Z,994.05
2019-01-08T09:20:34.181Z,994.03
2019-01-08T09:21:34.163Z,993.96
2019-01-08T09:22:34.159Z,994.07
2019-01-08T09:23:34.150Z,994.09
2019-01-08T09:24:34.122Z,993.91
2019-01-08T09:25:34.116Z,993.86
2019-01-08T09:26:34.104Z,993.89
2019-01-08T09:27:34.107Z,993.82
2019-01-08T09:28:34.086Z,993.97
2019-01-08T09:29:34.067Z,993.92
2019-01-08T09:30:34.048Z,993.97
2019-01-08T09:31:34.053Z,993.97
2019-01-08T09:32:34.034Z,993.87
2019-01-08T09:33:34.022Z,993.76
2019-01-08T09:34:34.021Z,993.73
2019-01-08T09:35:33.993Z,993.60
2019-01-08T09:36:33.982Z,993.59
2019-01-08T09:37:33.989Z,993.47
2019-01-08T09:38:33.975Z,993.66
2019-01-08T09:39:34.011Z,993.62
2019-01-08T09:40:33.938Z,993.63
2019-01-08T09:41:33.927Z,993.56
2019-01-08T09:42:34.010Z,993.41
2019-01-08T09:43:33.915Z,993.50
2019-01-08T09:44:33.921Z,993.41
2019-01-08T09:45:33.883Z,993.41
2019-01-08T09:46:33.891Z,993.41
2019-01-08T09:47:33.859Z,993.35
2019-01-08T09:48:33.849Z,993.57
2019-01-08T09:49:33.854Z,993.46
2019-01-08T09:50:33.838Z,993.40
2019-01-08T09:51:33.829Z,993.28
2019-01-08T09:52:33.810Z,993.46
2019-01-08T09:53:33.799Z,993.46
2019-01-08T09:54:33.809Z,993.31
2019-01-08T09:55:33.775Z,993.26
2019-01-08T09:56:33.759Z,993.23
2019-01-08T09:57:33.766Z,993.25
2019-01-08T09:58:33.733Z,993.25
2019-01-08T09:59:35.566Z,993.35
2019-01-08T10:00:33.710Z,993.15
2019-01-08T10:01:33.725Z,993.00
2019-01-08T10:02:33.697Z,993.24
2019-01-08T10:03:33.690Z,993.19
2019-01-08T10:04:33.695Z,993.13
2019-01-08T10:05:33.663Z,993.07
2019-01-08T10:06:33.648Z,992.99
2019-01-08T10:07:33.635Z,993.03
2019-01-08T10:08:33.630Z,992.91
2019-01-08T10:09:33.633Z,993.18
2019-01-08T10:10:33.610Z,992.88
2019-01-08T10:11:33.595Z,992.88
2019-01-08T10:12:33.589Z,992.78
2019-01-08T10:13:33.565Z,992.88
2019-01-08T10:14:33.578Z,992.74
2019-01-08T10:15:33.563Z,992.89
2019-01-08T10:16:33.538Z,992.92
2019-01-08T10:17:33.525Z,992.72
2019-01-08T10:18:33.567Z,992.88
2019-01-08T10:19:33.535Z,992.68
2019-01-08T10:20:33.523Z,992.73
2019-01-08T10:21:33.501Z,992.63
2019-01-08T10:22:33.472Z,992.67
2019-01-08T10:23:33.450Z,992.55
2019-01-08T10:24:33.470Z,992.53
2019-01-08T10:25:33.435Z,992.47
2019-01-08T10:26:33.419Z,992.48
2019-01-08T10:27:33.416Z,992.59
2019-01-08T10:28:33.410Z,992.42
2019-01-08T10:29:33.409Z,992.51
2019-01-08T10:30:33.377Z,992.49
2019-01-08T10:31:33.371Z,992.37
2019-01-08T10:32:33.388Z,992.45
2019-01-08T10:33:33.346Z,992.40
2019-01-08T10:34:33.350Z,992.34
2019-01-08T10:35:33.336Z,992.34
2019-01-08T10:36:33.317Z,992.30
2019-01-08T10:37:33.316Z,992.21
2019-01-08T10:38:33.290Z,992.49
2019-01-08T10:39:33.321Z,992.33
2019-01-08T10:40:33.256Z,992.32
2019-01-08T10:41:33.263Z,992.24
2019-01-08T10:42:33.236Z,992.09
2019-01-08T10:43:33.253Z,992.08
2019-01-08T10:44:33.252Z,992.30
2019-01-08T10:45:34.524Z,992.11
2019-01-08T10:46:37.377Z,992.10
2019-01-08T10:47:33.187Z,992.17
2019-01-08T10:48:33.171Z,992.30
2019-01-08T10:49:33.187Z,992.43
2019-01-08T10:50:33.153Z,992.14
2019-01-08T10:51:33.137Z,992.29
2019-01-08T10:52:33.136Z,992.27
2019-01-08T10:53:33.118Z,992.19
2019-01-08T10:54:33.107Z,992.17
2019-01-08T10:55:33.123Z,991.96
2019-01-08T10:56:33.084Z,992.01
2019-01-08T10:57:33.064Z,992.12
2019-01-08T10:58:33.067Z,992.07
2019-01-08T10:59:33.048Z,992.06
2019-01-08T11:00:33.055Z,992.31
2019-01-08T11:01:40.302Z,991.99
2019-01-08T11:02:34.017Z,992.06
2019-01-08T11:03:33.038Z,992.06
2019-01-08T11:04:33.013Z,992.09
2019-01-08T11:05:33.000Z,991.98
2019-01-08T11:06:32.970Z,991.88
2019-01-08T11:07:33.010Z,992.14
2019-01-08T11:08:32.951Z,991.95
2019-01-08T11:09:32.947Z,991.82
2019-01-08T11:10:32.941Z,991.88
2019-01-08T11:11:34.361Z,991.73
2019-01-08T11:12:32.946Z,992.07
2019-01-08T11:13:32.916Z,991.69
2019-01-08T11:14:32.885Z,991.76
2019-01-08T11:15:32.925Z,991.64
2019-01-08T11:16:32.870Z,991.64
2019-01-08T11:17:32.879Z,991.56
2019-01-08T11:18:32.846Z,991.71
2019-01-08T11:19:32.825Z,991.71
2019-01-08T11:20:32.833Z,991.66
2019-01-08T11:21:32.801Z,991.71
2019-01-08T11:22:32.794Z,991.61
2019-01-08T11:23:32.786Z,991.58
2019-01-08T11:24:32.779Z,991.78
2019-01-08T11:25:32.803Z,991.66
2019-01-08T11:26:32.761Z,991.64
2019-01-08T11:27:32.732Z,991.47
2019-01-08T11:28:32.731Z,991.61
2019-01-08T11:29:32.723Z,991.46
2019-01-08T11:30:32.689Z,991.58
2019-01-08T11:31:32.702Z,991.34
2019-01-08T11:32:32.670Z,991.39
2019-01-08T11:33:32.675Z,991.57
2019-01-08T11:34:32.664Z,991.42
2019-01-08T11:35:32.648Z,991.31
2019-01-08T11:36:32.655Z,991.48
2019-01-08T11:37:32.626Z,991.31
2019-01-08T11:38:32.610Z,991.53
2019-01-08T11:39:32.651Z,991.35
2019-01-08T11:40:32.604Z,991.35
2019-01-08T11:41:32.605Z,991.32
2019-01-08T11:42:32.565Z,991.32
2019-01-08T11:43:32.590Z,991.32
2019-01-08T11:44:32.590Z,991.28
2019-01-08T11:45:32.557Z,991.33
2019-01-08T11:46:32.538Z,991.33
2019-01-08T11:47:32.513Z,991.29
2019-01-08T11:48:32.497Z,991.27
2019-01-08T11:49:32.483Z,991.30
2019-01-08T11:50:32.493Z,991.16
2019-01-08T11:51:32.488Z,991.24
2019-01-08T11:52:32.460Z,991.27
2019-01-08T11:53:32.445Z,991.16
2019-01-08T11:54:40.643Z,991.24
2019-01-08T11:55:33.425Z,991.26
2019-01-08T11:56:32.426Z,991.27
2019-01-08T11:57:32.416Z,991.31
2019-01-08T11:58:32.380Z,991.20
2019-01-08T11:59:32.376Z,991.14
2019-01-08T12:00:32.369Z,991.27
2019-01-08T12:01:32.384Z,991.15
2019-01-08T12:02:32.346Z,991.16
2019-01-08T12:03:32.322Z,991.19
2019-01-08T12:04:32.325Z,991.11
2019-01-08T12:05:32.309Z,991.16
2019-01-08T12:06:32.319Z,991.36
2019-01-08T12:07:32.285Z,991.27
2019-01-08T12:08:32.278Z,991.10
2019-01-08T12:09:32.263Z,991.04
2019-01-08T12:10:32.253Z,991.11
2019-01-08T12:11:32.263Z,991.11
2019-01-08T12:12:32.230Z,991.06
2019-01-08T12:13:32.216Z,991.11
2019-01-08T12:14:32.200Z,991.00
2019-01-08T12:15:32.183Z,991.09
2019-01-08T12:16:32.203Z,991.07
2019-01-08T12:17:32.182Z,991.04
2019-01-08T12:18:32.169Z,991.20
2019-01-08T12:19:32.152Z,991.13